createdAt,value
2019-05-18T00:00:38.692Z,13.02
2019-05-18T00:03:08.158Z,13.02
2019-05-18T00:05:37.627Z,13.04
2019-05-18T00:08:07.190Z,13.07
2019-05-18T00:10:36.747Z,13.10
2019-05-18T00:13:06.288Z,13.10
2019-05-18T00:15:35.921Z,13.12
2019-05-18T00:18:05.602Z,13.12
2019-05-18T00:20:35.230Z,13.12
2019-05-18T00:23:04.825Z,13.12
2019-05-18T00:25:35.868Z,13.11
2019-05-18T00:28:05.437Z,13.09
2019-05-18T00:30:34.985Z,13.06
2019-05-18T00:33:23.846Z,13.03
2019-05-18T00:35:53.325Z,13.00
2019-05-18T00:38:22.772Z,12.96
2019-05-18T00:40:52.337Z,12.92
2019-05-18T00:43:21.856Z,12.88
2019-05-18T00:46:10.784Z,12.84
2019-05-18T00:48:40.359Z,12.79
2019-05-18T00:51:09.917Z,12.74
2019-05-18T00:53:39.580Z,12.69
2019-05-18T00:56:09.008Z,12.63
2019-05-18T00:58:38.504Z,12.57
2019-05-18T01:01:08.044Z,12.50
2019-05-18T01:03:37.536Z,12.41
2019-05-18T01:06:07.012Z,12.34
2019-05-18T01:08:36.500Z,12.25
2019-05-18T01:11:06.003Z,12.17
2019-05-18T01:13:35.622Z,12.12
2019-05-18T01:16:05.342Z,12.05
2019-05-18T01:18:34.833Z,11.98
2019-05-18T01:21:04.318Z,11.93
2019-05-18T01:23:33.831Z,11.86
2019-05-18T01:26:03.447Z,11.81
2019-05-18T01:28:32.920Z,11.75
2019-05-18T01:31:02.419Z,11.68
2019-05-18T01:33:31.943Z,11.61
2019-05-18T01:36:01.513Z,11.53
2019-05-18T01:38:31.023Z,11.48
2019-05-18T01:41:00.545Z,11.43
2019-05-18T01:43:30.037Z,11.36
2019-05-18T01:45:59.502Z,11.30
2019-05-18T01:48:28.977Z,11.23
2019-05-18T01:50:58.446Z,11.19
2019-05-18T01:53:27.922Z,11.13
2019-05-18T01:55:57.385Z,11.08
2019-05-18T01:58:26.877Z,11.05
2019-05-18T02:00:56.334Z,10.99
2019-05-18T02:03:26.099Z,10.96
2019-05-18T02:05:55.674Z,10.93
2019-05-18T02:08:25.162Z,10.89
2019-05-18T02:10:54.671Z,10.87
2019-05-18T02:13:24.199Z,10.84
2019-05-18T02:15:53.705Z,10.82
2019-05-18T02:18:29.221Z,10.81
2019-05-18T02:20:54.394Z,10.81
2019-05-18T02:23:23.873Z,10.81
2019-05-18T02:25:53.405Z,10.80
2019-05-18T02:28:22.899Z,10.83
2019-05-18T02:30:52.373Z,10.84
2019-05-18T02:33:21.863Z,10.85
2019-05-18T02:35:51.403Z,10.88
2019-05-18T02:38:20.917Z,10.89
2019-05-18T02:40:50.512Z,10.92
2019-05-18T02:43:20.089Z,10.92
2019-05-18T02:45:49.584Z,10.93
2019-05-18T02:48:19.082Z,10.94
2019-05-18T02:50:48.586Z,10.96
2019-05-18T02:53:18.220Z,10.96
2019-05-18T02:55:47.772Z,10.97
2019-05-18T02:58:17.238Z,10.95
2019-05-18T03:00:47.446Z,10.97
2019-05-18T03:03:17.014Z,10.95
2019-05-18T03:05:46.541Z,10.93
2019-05-18T03:08:16.145Z,10.92
2019-05-18T03:10:45.699Z,10.92
2019-05-18T03:13:15.170Z,10.91
2019-05-18T03:15:44.745Z,10.89
2019-05-18T03:18:14.385Z,10.87
2019-05-18T03:20:44.212Z,10.87
2019-05-18T03:23:13.671Z,10.86
2019-05-18T03:25:43.529Z,10.87
2019-05-18T03:28:13.421Z,10.86
2019-05-18T03:30:42.900Z,10.87
2019-05-18T03:33:12.381Z,10.87
2019-05-18T03:35:41.860Z,10.89
2019-05-18T03:38:11.489Z,10.91
2019-05-18T03:40:40.980Z,10.92
2019-05-18T03:43:10.441Z,10.94
2019-05-18T03:45:39.992Z,10.95
2019-05-18T03:48:09.456Z,11.00
2019-05-18T03:50:38.913Z,11.03
2019-05-18T03:53:08.402Z,11.07
2019-05-18T03:55:37.902Z,11.11
2019-05-18T03:58:07.364Z,11.15
2019-05-18T04:00:36.902Z,11.19
2019-05-18T04:03:06.374Z,11.21
2019-05-18T04:05:35.836Z,11.27
2019-05-18T04:08:05.327Z,11.33
2019-05-18T04:10:34.866Z,11.39
2019-05-18T04:13:04.357Z,11.44
2019-05-18T04:15:33.992Z,11.49
2019-05-18T04:18:03.450Z,11.55
2019-05-18T04:20:32.936Z,11.62
2019-05-18T04:23:02.430Z,11.67
2019-05-18T04:25:31.895Z,11.74
2019-05-18T04:28:01.368Z,11.80
2019-05-18T04:30:30.824Z,11.90
2019-05-18T04:33:00.455Z,11.98
2019-05-18T04:35:29.909Z,12.06
2019-05-18T04:37:59.380Z,12.13
2019-05-18T04:40:28.874Z,12.21
2019-05-18T04:42:58.413Z,12.31
2019-05-18T04:45:27.903Z,12.40
2019-05-18T04:47:57.350Z,12.48
2019-05-18T04:50:26.835Z,12.58
2019-05-18T04:52:56.360Z,12.66
2019-05-18T04:55:25.854Z,12.75
2019-05-18T04:57:55.343Z,12.81
2019-05-18T05:00:24.789Z,12.88
2019-05-18T05:02:54.279Z,12.95
2019-05-18T05:05:23.735Z,13.02
2019-05-18T05:07:53.253Z,13.10
2019-05-18T05:10:22.746Z,13.18
2019-05-18T05:12:52.209Z,13.26
2019-05-18T05:15:21.729Z,13.31
2019-05-18T05:17:51.180Z,13.38
2019-05-18T05:20:20.739Z,13.46
2019-05-18T05:22:50.251Z,13.55
2019-05-18T05:25:39.090Z,13.63
2019-05-18T05:28:08.548Z,13.73
2019-05-18T05:30:38.110Z,13.84
2019-05-18T05:33:07.576Z,13.93
2019-05-18T05:35:37.849Z,14.02
2019-05-18T05:38:07.521Z,14.13
2019-05-18T05:40:37.006Z,14.26
2019-05-18T05:43:06.484Z,14.35
2019-05-18T05:45:35.939Z,14.46
2019-05-18T05:48:05.502Z,14.58
2019-05-18T05:50:36.575Z,14.68
2019-05-18T05:53:06.314Z,14.80
2019-05-18T05:55:35.802Z,14.93
2019-05-18T05:58:05.262Z,15.03
2019-05-18T06:00:34.770Z,15.17
2019-05-18T06:03:04.222Z,15.27
2019-05-18T06:05:33.730Z,15.38
2019-05-18T06:08:03.197Z,15.49
2019-05-18T06:10:32.762Z,15.61
2019-05-18T06:13:02.221Z,15.71
2019-05-18T06:15:31.756Z,15.81
2019-05-18T06:18:01.238Z,15.90
2019-05-18T06:20:30.723Z,16.00
2019-05-18T06:23:00.190Z,16.10
2019-05-18T06:25:34.090Z,16.18
2019-05-18T06:28:00.975Z,16.25
2019-05-18T06:30:30.456Z,16.32
2019-05-18T06:32:59.946Z,16.42
2019-05-18T06:35:30.999Z,16.49
2019-05-18T06:38:00.413Z,16.56
2019-05-18T06:40:29.875Z,16.63
2019-05-18T06:42:59.375Z,16.72
2019-05-18T06:45:28.989Z,16.82
2019-05-18T06:47:58.490Z,16.89
2019-05-18T06:50:31.831Z,16.99
2019-05-18T06:53:01.405Z,17.07
2019-05-18T06:55:32.552Z,17.17
2019-05-18T06:58:02.726Z,17.26
2019-05-18T07:00:32.230Z,17.35
2019-05-18T07:03:01.728Z,17.44
2019-05-18T07:05:31.173Z,17.52
2019-05-18T07:08:00.683Z,17.59
2019-05-18T07:10:30.123Z,17.66
2019-05-18T07:12:59.562Z,17.72
2019-05-18T07:15:29.083Z,17.77
2019-05-18T07:17:58.542Z,17.81
2019-05-18T07:20:28.092Z,17.84
2019-05-18T07:22:57.578Z,17.87
2019-05-18T07:25:27.034Z,17.89
2019-05-18T07:27:56.531Z,17.90
2019-05-18T07:30:25.982Z,17.91
2019-05-18T07:32:55.473Z,17.91
2019-05-18T07:35:25.024Z,17.92
2019-05-18T07:37:54.534Z,17.93
2019-05-18T07:40:24.060Z,17.94
2019-05-18T07:42:53.511Z,17.97
2019-05-18T07:45:23.095Z,17.99
2019-05-18T07:47:52.584Z,18.00
2019-05-18T07:50:22.221Z,18.03
2019-05-18T07:52:51.750Z,18.05
2019-05-18T07:55:21.195Z,18.09
2019-05-18T07:57:50.693Z,18.10
2019-05-18T08:00:20.134Z,18.11
2019-05-18T08:02:49.632Z,18.14
2019-05-18T08:05:19.250Z,18.20
2019-05-18T08:07:48.762Z,18.30
2019-05-18T08:10:22.926Z,18.40
2019-05-18T08:12:52.429Z,18.47
2019-05-18T08:15:22.009Z,18.55
2019-05-18T08:17:51.469Z,18.61
2019-05-18T08:20:20.999Z,18.66
2019-05-18T08:22:50.433Z,18.72
2019-05-18T08:25:19.992Z,18.79
2019-05-18T08:27:49.431Z,18.91
2019-05-18T08:30:18.950Z,19.04
2019-05-18T08:32:48.438Z,19.17
2019-05-18T08:35:17.912Z,19.31
2019-05-18T08:37:47.358Z,19.45
2019-05-18T08:40:17.557Z,19.57
2019-05-18T08:42:47.008Z,19.71
2019-05-18T08:45:17.010Z,19.82
2019-05-18T08:47:46.476Z,19.95
2019-05-18T08:50:16.215Z,20.09
2019-05-18T08:52:45.719Z,20.28
2019-05-18T08:55:16.431Z,20.46
2019-05-18T08:57:45.885Z,20.66
2019-05-18T09:00:16.896Z,20.86
2019-05-18T09:02:46.341Z,21.05
2019-05-18T09:05:16.271Z,21.23
2019-05-18T09:07:46.373Z,21.37
2019-05-18T09:10:16.224Z,21.52
2019-05-18T09:12:45.757Z,21.59
2019-05-18T09:15:16.025Z,21.63
2019-05-18T09:17:45.504Z,21.69
2019-05-18T09:20:15.199Z,21.73
2019-05-18T09:22:44.693Z,21.81
2019-05-18T09:25:16.125Z,21.87
2019-05-18T09:27:45.633Z,21.92
2019-05-18T09:30:15.592Z,21.97
2019-05-18T09:32:45.108Z,22.01
2019-05-18T09:35:15.082Z,22.08
2019-05-18T09:37:44.615Z,22.14
2019-05-18T09:40:14.679Z,22.21
2019-05-18T09:42:44.175Z,22.29
2019-05-18T09:45:14.428Z,22.35
2019-05-18T09:47:44.005Z,22.49
2019-05-18T09:50:13.708Z,22.64
2019-05-18T09:52:45.221Z,22.79
2019-05-18T09:55:15.267Z,22.95
2019-05-18T09:57:44.891Z,23.13
2019-05-18T10:00:16.352Z,23.29
2019-05-18T10:02:45.863Z,23.43
2019-05-18T10:05:15.471Z,23.53
2019-05-18T10:07:45.039Z,23.61
2019-05-18T10:10:15.752Z,23.65
2019-05-18T10:12:45.309Z,23.75
2019-05-18T10:15:16.035Z,23.86
2019-05-18T10:18:04.921Z,23.97
2019-05-18T10:20:34.593Z,24.06
2019-05-18T10:23:11.900Z,24.16
2019-05-18T10:25:35.351Z,24.24
2019-05-18T10:28:04.940Z,24.31
2019-05-18T10:30:34.533Z,24.35
2019-05-18T10:33:04.248Z,24.39
2019-05-18T10:35:33.814Z,24.43
2019-05-18T10:38:03.443Z,24.47
2019-05-18T10:40:33.006Z,24.45
2019-05-18T10:43:02.642Z,24.47
2019-05-18T10:45:32.133Z,24.51
2019-05-18T10:48:01.714Z,24.62
2019-05-18T10:50:31.290Z,24.75
2019-05-18T10:53:00.793Z,24.88
2019-05-18T10:55:31.691Z,24.99
2019-05-18T10:58:01.257Z,25.09
2019-05-18T11:00:31.071Z,25.20
2019-05-18T11:03:00.594Z,25.31
2019-05-18T11:05:30.056Z,25.41
2019-05-18T11:07:59.622Z,25.49
2019-05-18T11:10:29.230Z,25.53
2019-05-18T11:12:58.751Z,25.55
2019-05-18T11:15:28.350Z,25.58
2019-05-18T11:17:57.835Z,25.57
2019-05-18T11:20:27.387Z,25.55
2019-05-18T11:22:56.874Z,25.50
2019-05-18T11:25:26.373Z,25.39
2019-05-18T11:27:55.850Z,25.24
2019-05-18T11:30:25.696Z,25.12
2019-05-18T11:32:55.234Z,25.01
2019-05-18T11:35:25.159Z,24.91
2019-05-18T11:37:54.675Z,24.83
2019-05-18T11:40:24.284Z,24.75
2019-05-18T11:42:53.824Z,24.72
2019-05-18T11:45:23.770Z,24.68
2019-05-18T11:47:53.261Z,24.68
2019-05-18T11:50:23.145Z,24.69
2019-05-18T11:52:52.637Z,24.76
2019-05-18T11:55:22.550Z,24.86
2019-05-18T11:57:52.055Z,24.97
2019-05-18T12:00:24.967Z,25.08
2019-05-18T12:02:54.611Z,25.18
2019-05-18T12:05:24.138Z,25.27
2019-05-18T12:07:53.707Z,25.37
2019-05-18T12:10:23.309Z,25.43
2019-05-18T12:12:52.936Z,25.47
2019-05-18T12:15:23.017Z,25.50
2019-05-18T12:17:52.527Z,25.53
2019-05-18T12:20:24.010Z,25.62
2019-05-18T12:22:53.498Z,25.71
2019-05-18T12:25:23.131Z,25.81
2019-05-18T12:27:52.668Z,25.91
2019-05-18T12:30:22.528Z,26.02
2019-05-18T12:32:52.011Z,26.10
2019-05-18T12:35:21.643Z,26.17
2019-05-18T12:37:51.138Z,26.25
2019-05-18T12:40:23.306Z,26.31
2019-05-18T12:42:52.795Z,26.31
2019-05-18T12:45:22.592Z,26.28
2019-05-18T12:47:52.078Z,26.27
2019-05-18T12:50:23.778Z,26.29
2019-05-18T12:52:53.442Z,26.33
2019-05-18T12:55:23.833Z,26.34
2019-05-18T12:57:53.545Z,26.32
2019-05-18T13:00:23.460Z,26.30
2019-05-18T13:02:53.048Z,26.27
2019-05-18T13:05:22.746Z,26.21
2019-05-18T13:07:52.268Z,26.13
2019-05-18T13:10:22.516Z,26.07
2019-05-18T13:12:51.994Z,26.03
2019-05-18T13:15:22.082Z,25.98
2019-05-18T13:17:51.573Z,25.94
2019-05-18T13:20:21.586Z,25.88
2019-05-18T13:22:51.145Z,25.86
2019-05-18T13:25:20.780Z,25.80
2019-05-18T13:27:50.342Z,25.71
2019-05-18T13:30:20.196Z,25.62
2019-05-18T13:32:49.774Z,25.58
2019-05-18T13:35:20.277Z,25.62
2019-05-18T13:37:49.952Z,25.72
2019-05-18T13:40:19.761Z,25.85
2019-05-18T13:42:49.341Z,26.03
2019-05-18T13:45:19.609Z,26.20
2019-05-18T13:47:49.129Z,26.36
2019-05-18T13:50:19.133Z,26.48
2019-05-18T13:52:48.613Z,26.55
2019-05-18T13:55:18.371Z,26.60
2019-05-18T13:57:47.838Z,26.61
2019-05-18T14:00:17.922Z,26.58
2019-05-18T14:02:47.488Z,26.57
2019-05-18T14:05:17.994Z,26.56
2019-05-18T14:07:47.553Z,26.54
2019-05-18T14:10:17.446Z,26.49
2019-05-18T14:12:47.127Z,26.38
2019-05-18T14:15:16.878Z,26.20
2019-05-18T14:17:46.450Z,26.02
2019-05-18T14:20:16.645Z,25.85
2019-05-18T14:22:46.187Z,25.72
2019-05-18T14:25:19.632Z,25.60
2019-05-18T14:27:47.203Z,25.48
2019-05-18T14:30:17.123Z,25.35
2019-05-18T14:32:46.615Z,25.24
2019-05-18T14:35:17.422Z,25.13
2019-05-18T14:37:46.939Z,25.03
2019-05-18T14:40:16.884Z,24.94
2019-05-18T14:42:46.362Z,24.88
2019-05-18T14:45:16.339Z,24.81
2019-05-18T14:47:45.988Z,24.75
2019-05-18T14:50:16.626Z,24.70
2019-05-18T14:52:46.592Z,24.66
2019-05-18T14:55:16.412Z,24.62
2019-05-18T14:57:45.909Z,24.58
2019-05-18T15:00:15.694Z,24.57
2019-05-18T15:02:45.300Z,24.56
2019-05-18T15:05:15.119Z,24.52
2019-05-18T15:07:44.610Z,24.48
2019-05-18T15:10:16.232Z,24.44
2019-05-18T15:12:45.797Z,24.39
2019-05-18T15:15:15.949Z,24.34
2019-05-18T15:17:45.597Z,24.29
2019-05-18T15:20:16.668Z,24.26
2019-05-18T15:22:46.250Z,24.21
2019-05-18T15:25:16.139Z,24.11
2019-05-18T15:27:45.657Z,23.98
2019-05-18T15:30:15.649Z,23.87
2019-05-18T15:32:45.185Z,23.78
2019-05-18T15:37:43.973Z,23.64
2019-05-18T15:40:14.119Z,23.59
2019-05-18T15:42:43.624Z,23.54
2019-05-18T15:45:13.571Z,23.49
2019-05-18T15:47:43.204Z,23.43
2019-05-18T15:50:13.963Z,23.36
2019-05-18T15:52:43.536Z,23.30
2019-05-18T15:55:13.484Z,23.26
2019-05-18T15:57:42.947Z,23.22
2019-05-18T16:00:13.370Z,23.20
2019-05-18T16:02:42.912Z,23.22
2019-05-18T16:05:13.718Z,23.27
2019-05-18T16:07:43.342Z,23.35
2019-05-18T16:10:14.818Z,23.52
2019-05-18T16:12:44.358Z,23.84
2019-05-18T16:15:14.433Z,24.26
2019-05-18T16:17:44.084Z,24.70
2019-05-18T16:20:14.192Z,25.19
2019-05-18T16:22:44.507Z,25.59
2019-05-18T16:25:15.156Z,25.85
2019-05-18T16:27:44.762Z,26.12
2019-05-18T16:30:15.195Z,26.49
2019-05-18T16:32:44.755Z,26.91
2019-05-18T16:35:16.231Z,27.39
2019-05-18T16:37:45.790Z,27.83
2019-05-18T16:40:16.582Z,28.21
2019-05-18T16:42:47.767Z,28.53
2019-05-18T16:45:17.693Z,28.88
2019-05-18T16:47:47.345Z,29.26
2019-05-18T16:50:18.563Z,29.60
2019-05-18T16:52:48.065Z,29.98
2019-05-18T16:55:18.226Z,30.35
2019-05-18T16:57:47.757Z,30.71
2019-05-18T17:00:18.185Z,31.04
2019-05-18T17:02:47.703Z,31.31
2019-05-18T17:05:17.445Z,31.59
2019-05-18T17:07:46.901Z,31.81
2019-05-18T17:10:16.617Z,31.91
2019-05-18T17:12:46.191Z,31.79
2019-05-18T17:15:16.444Z,31.59
2019-05-18T17:17:45.922Z,31.34
2019-05-18T17:20:15.695Z,31.17
2019-05-18T17:22:45.311Z,31.05
2019-05-18T17:25:14.933Z,30.98
2019-05-18T17:27:44.559Z,30.93
2019-05-18T17:30:16.357Z,30.90
2019-05-18T17:32:45.971Z,30.80
2019-05-18T17:35:15.672Z,30.53
2019-05-18T17:37:45.251Z,30.29
2019-05-18T17:40:15.570Z,30.16
2019-05-18T17:42:45.090Z,30.07
2019-05-18T17:45:14.930Z,30.01
2019-05-18T17:47:44.455Z,29.98
2019-05-18T17:50:14.869Z,29.97
2019-05-18T17:52:44.371Z,29.95
2019-05-18T17:55:16.360Z,29.92
2019-05-18T17:57:45.758Z,29.85
2019-05-18T18:00:16.872Z,29.77
2019-05-18T18:02:48.288Z,29.56
2019-05-18T18:05:17.824Z,29.35
2019-05-18T18:07:47.281Z,29.22
2019-05-18T18:10:17.039Z,29.13
2019-05-18T18:12:46.615Z,29.04
2019-05-18T18:15:16.590Z,28.91
2019-05-18T18:17:46.087Z,28.67
2019-05-18T18:20:15.784Z,28.36
2019-05-18T18:22:45.345Z,28.00
2019-05-18T18:25:15.043Z,27.62
2019-05-18T18:27:44.593Z,27.23
2019-05-18T18:30:15.461Z,26.85
2019-05-18T18:32:45.006Z,26.49
2019-05-18T18:35:14.809Z,26.16
2019-05-18T18:37:44.433Z,25.85
2019-05-18T18:40:14.498Z,25.57
2019-05-18T18:42:44.006Z,25.32
2019-05-18T18:45:14.418Z,25.07
2019-05-18T18:47:43.894Z,24.82
2019-05-18T18:50:13.828Z,24.58
2019-05-18T18:52:43.438Z,24.35
2019-05-18T18:55:13.169Z,24.12
2019-05-18T18:57:42.739Z,23.90
2019-05-18T19:02:41.466Z,23.49
2019-05-18T19:05:11.886Z,23.30
2019-05-18T19:08:00.754Z,23.13
2019-05-18T19:10:30.275Z,22.95
2019-05-18T19:12:59.733Z,22.75
2019-05-18T19:15:29.374Z,22.58
2019-05-18T19:17:58.853Z,22.40
2019-05-18T19:20:28.367Z,22.24
2019-05-18T19:22:57.977Z,22.07
2019-05-18T19:25:27.543Z,21.92
2019-05-18T19:27:57.156Z,21.79
2019-05-18T19:30:26.804Z,21.65
2019-05-18T19:32:56.337Z,21.52
2019-05-18T19:35:25.852Z,21.37
2019-05-18T19:37:55.462Z,21.23
2019-05-18T19:40:25.103Z,21.09
2019-05-18T19:42:54.674Z,20.95
2019-05-18T19:45:24.176Z,20.80
2019-05-18T19:47:53.687Z,20.64
2019-05-18T19:50:42.527Z,20.46
2019-05-18T19:53:12.085Z,20.30
2019-05-18T19:55:41.583Z,20.12
2019-05-18T19:58:11.045Z,19.97
2019-05-18T20:00:40.506Z,19.83
2019-05-18T20:03:10.025Z,19.69
2019-05-18T20:05:39.644Z,19.55
2019-05-18T20:08:09.296Z,19.40
2019-05-18T20:10:38.753Z,19.25
2019-05-18T20:13:08.258Z,19.13
2019-05-18T20:15:37.725Z,19.00
2019-05-18T20:18:07.248Z,18.88
2019-05-18T20:20:36.848Z,18.77
2019-05-18T20:23:08.384Z,18.66
2019-05-18T20:25:37.601Z,18.57
2019-05-18T20:28:07.117Z,18.49
2019-05-18T20:30:36.658Z,18.38
2019-05-18T20:33:06.289Z,18.32
2019-05-18T20:35:35.767Z,18.24
2019-05-18T20:38:05.349Z,18.19
2019-05-18T20:40:34.821Z,18.14
2019-05-18T20:43:04.320Z,18.07
2019-05-18T20:45:33.876Z,17.99
2019-05-18T20:48:03.514Z,17.89
2019-05-18T20:50:39.058Z,17.81
2019-05-18T20:53:08.631Z,17.72
2019-05-18T20:55:38.128Z,17.66
2019-05-18T20:58:07.700Z,17.63
2019-05-18T21:00:38.670Z,17.59
2019-05-18T21:03:08.603Z,17.56
2019-05-18T21:05:38.142Z,17.54
2019-05-18T21:08:07.606Z,17.55
2019-05-18T21:10:37.200Z,17.52
2019-05-18T21:13:06.726Z,17.51
2019-05-18T21:15:36.277Z,17.48
2019-05-18T21:18:05.826Z,17.46
2019-05-18T21:20:35.311Z,17.43
2019-05-18T21:23:04.927Z,17.43
2019-05-18T21:25:34.702Z,17.40
2019-05-18T21:28:04.199Z,17.38
2019-05-18T21:30:34.365Z,17.37
2019-05-18T21:33:03.922Z,17.36
2019-05-18T21:35:33.461Z,17.33
2019-05-18T21:38:02.982Z,17.30
2019-05-18T21:40:32.520Z,17.28
2019-05-18T21:43:01.995Z,17.25
2019-05-18T21:45:31.461Z,17.22
2019-05-18T21:48:01.035Z,17.19
2019-05-18T21:50:30.551Z,17.16
2019-05-18T21:53:00.014Z,17.15
2019-05-18T21:55:29.581Z,17.12
2019-05-18T21:58:18.454Z,17.10
2019-05-18T22:00:50.469Z,17.07
2019-05-18T22:03:20.010Z,17.06
2019-05-18T22:05:49.564Z,17.05
2019-05-18T22:08:19.042Z,17.02
2019-05-18T22:10:48.642Z,17.03
2019-05-18T22:13:18.184Z,17.02
2019-05-18T22:15:47.662Z,17.02
2019-05-18T22:18:24.423Z,17.02
2019-05-18T22:20:48.490Z,17.03
2019-05-18T22:23:17.967Z,17.03
2019-05-18T22:25:47.485Z,17.03
2019-05-18T22:28:17.016Z,17.01
2019-05-18T22:30:46.608Z,17.00
2019-05-18T22:33:16.068Z,16.97
2019-05-18T22:35:45.565Z,16.94
2019-05-18T22:38:15.034Z,16.91
2019-05-18T22:40:44.549Z,16.87
2019-05-18T22:43:14.032Z,16.86
2019-05-18T22:45:47.168Z,16.83
2019-05-18T22:48:16.681Z,16.81
2019-05-18T22:50:46.152Z,16.78
2019-05-18T22:53:15.674Z,16.75
2019-05-18T22:55:45.150Z,16.72
2019-05-18T22:58:14.661Z,16.69
2019-05-18T23:00:44.172Z,16.65
2019-05-18T23:03:13.806Z,16.61
2019-05-18T23:05:43.423Z,16.57
2019-05-18T23:08:13.044Z,16.53
2019-05-18T23:10:42.546Z,16.48
2019-05-18T23:13:12.047Z,16.43
2019-05-18T23:15:41.517Z,16.38
2019-05-18T23:18:11.007Z,16.33
2019-05-18T23:20:40.479Z,16.28
2019-05-18T23:23:09.982Z,16.24
2019-05-18T23:25:39.453Z,16.21
2019-05-18T23:28:08.961Z,16.18
2019-05-18T23:30:38.427Z,16.15
2019-05-18T23:33:07.898Z,16.12
2019-05-18T23:35:37.459Z,16.09
2019-05-18T23:38:07.025Z,16.08
2019-05-18T23:40:36.587Z,16.05
2019-05-18T23:43:06.307Z,16.05
2019-05-18T23:45:36.021Z,16.04
2019-05-18T23:48:05.655Z,16.04
2019-05-18T23:50:35.216Z,16.04
2019-05-18T23:53:04.791Z,16.04
2019-05-18T23:55:53.655Z,16.06
2019-05-18T23:58:23.215Z,16.07
